Time;durP1;ratioP1;P1;durP2;ratioP2;P2;SDS_P1;SDS_P2;PMS_P1;PMS_P2;Temp;Humidity;BMP_temperature;BMP_pressure;BME280_temperature;BME280_humidity;BME280_pressure;Samples;Min_cycle;Max_cycle;Signal;HPM_P1;HPM_P2
2023/08/19 00:00:26;;;;;;;25.08;22.48;;;;;;;;;;5017432;28;20064;-66
2023/08/19 00:02:51;;;;;;;25.40;22.67;;;;;;;;;;5015633;28;20215;-68
2023/08/19 00:05:18;;;;;;;26.90;24.13;;;;;;;;;;5016751;28;20052;-67
2023/08/19 00:07:43;;;;;;;26.63;23.70;;;;;;;;;;5022163;28;20491;-68
2023/08/19 00:10:13;;;;;;;27.23;23.63;;;;;;;;;;5016880;28;20040;-67
2023/08/19 00:12:39;;;;;;;25.90;23.20;;;;;;;;;;5016634;28;20480;-67
2023/08/19 00:15:04;;;;;;;25.80;23.30;;;;;;;;;;5015505;28;20499;-67
2023/08/19 00:17:29;;;;;;;25.95;22.95;;;;;;;;;;5012634;28;20036;-67
2023/08/19 00:19:55;;;;;;;25.88;23.17;;;;;;;;;;5015400;28;20025;-68
2023/08/19 00:22:20;;;;;;;26.40;23.60;;;;;;;;;;5015226;28;21888;-67
2023/08/19 00:24:45;;;;;;;25.98;23.48;;;;;;;;;;5015472;28;20510;-67
2023/08/19 00:27:12;;;;;;;25.83;23.02;;;;;;;;;;5001706;28;20059;-67
2023/08/19 00:29:38;;;;;;;26.52;23.40;;;;;;;;;;5016046;28;20128;-67
2023/08/19 00:32:03;;;;;;;29.13;23.98;;;;;;;;;;5003647;28;20039;-67
2023/08/19 00:34:28;;;;;;;27.52;24.52;;;;;;;;;;5014317;28;20387;-67
2023/08/19 00:36:56;;;;;;;26.75;23.95;;;;;;;;;;5018297;28;20136;-67
2023/08/19 00:39:24;;;;;;;27.13;24.25;;;;;;;;;;5017968;28;20422;-67
2023/08/19 00:41:49;;;;;;;25.67;22.98;;;;;;;;;;5015992;28;20049;-66
2023/08/19 00:44:16;;;;;;;25.67;22.92;;;;;;;;;;5016515;28;20658;-67
2023/08/19 00:46:44;;;;;;;25.95;23.15;;;;;;;;;;5015166;28;20044;-67
2023/08/19 00:49:10;;;;;;;25.20;22.55;;;;;;;;;;5013971;28;20449;-67
2023/08/19 00:51:35;;;;;;;24.55;22.17;;;;;;;;;;5014131;28;20131;-67
2023/08/19 00:54:01;;;;;;;24.73;22.08;;;;;;;;;;5015222;28;20037;-67
2023/08/19 00:56:26;;;;;;;25.05;22.42;;;;;;;;;;5015207;28;20048;-67
2023/08/19 00:58:52;;;;;;;24.67;22.10;;;;;;;;;;5003557;28;20087;-68
2023/08/19 01:01:18;;;;;;;25.35;22.52;;;;;;;;;;5012548;28;20360;-68
2023/08/19 01:03:43;;;;;;;24.38;21.90;;;;;;;;;;5013635;28;20041;-67
2023/08/19 01:06:08;;;;;;;25.35;21.50;;;;;;;;;;5017513;28;20128;-67
2023/08/19 01:08:40;;;;;;;23.38;20.95;;;;;;;;;;5013827;28;20049;-67
2023/08/19 01:11:05;;;;;;;;;;;;;;;;;;5018749;28;20544;-67
2023/08/19 01:13:34;;;;;;;23.53;21.13;;;;;;;;;;5018683;28;19920;-67
2023/08/19 01:16:12;;;;;;;22.42;20.05;;;;;;;;;;5015577;28;20280;-67
2023/08/19 01:18:38;;;;;;;22.65;20.35;;;;;;;;;;5015227;28;20041;-67
2023/08/19 01:21:06;;;;;;;22.13;19.85;;;;;;;;;;4996789;28;20067;-67
2023/08/19 01:23:33;;;;;;;22.45;19.92;;;;;;;;;;5017690;28;20739;-67
2023/08/19 01:26:01;;;;;;;21.90;19.80;;;;;;;;;;5016135;28;20034;-67
2023/08/19 01:28:26;;;;;;;22.63;19.48;;;;;;;;;;5014279;28;21038;-67
2023/08/19 01:30:54;;;;;;;22.00;19.70;;;;;;;;;;5042556;28;20060;-66
2023/08/19 01:33:24;;;;;;;20.85;18.70;;;;;;;;;;5010369;28;20045;-67
2023/08/19 01:35:54;;;;;;;20.85;18.35;;;;;;;;;;5002263;28;20037;-67
2023/08/19 01:38:34;;;;;;;23.45;19.17;;;;;;;;;;5013822;28;20029;-67
2023/08/19 01:41:01;;;;;;;21.38;19.17;;;;;;;;;;5014655;28;20069;-67
2023/08/19 01:43:27;;;;;;;20.98;18.70;;;;;;;;;;5011425;28;20524;-66
2023/08/19 01:45:55;;;;;;;22.08;18.70;;;;;;;;;;5014078;28;20197;-67
2023/08/19 01:48:25;;;;;;;21.75;18.30;;;;;;;;;;5012897;28;20053;-67
2023/08/19 01:50:50;;;;;;;19.20;17.23;;;;;;;;;;5001509;28;20029;-67
2023/08/19 01:53:15;;;;;;;21.55;17.85;;;;;;;;;;5015440;28;20586;-67
2023/08/19 01:55:43;;;;;;;19.35;17.45;;;;;;;;;;5014189;28;21779;-67
2023/08/19 01:58:08;;;;;;;22.73;17.85;;;;;;;;;;5014676;28;20727;-67
2023/08/19 02:00:33;;;;;;;19.73;17.67;;;;;;;;;;5012579;28;20057;-67
2023/08/19 02:02:59;;;;;;;20.50;17.27;;;;;;;;;;5013329;28;20037;-67
2023/08/19 02:05:25;;;;;;;19.20;17.08;;;;;;;;;;5016041;28;20079;-67
2023/08/19 02:07:50;;;;;;;19.33;17.23;;;;;;;;;;5018313;28;20412;-67
2023/08/19 02:10:16;;;;;;;19.38;17.35;;;;;;;;;;5030204;28;20037;-67
2023/08/19 02:12:41;;;;;;;19.73;17.63;;;;;;;;;;5018459;28;20734;-67
2023/08/19 02:15:06;;;;;;;20.40;17.67;;;;;;;;;;5016851;28;20094;-67
2023/08/19 02:17:32;;;;;;;19.00;16.88;;;;;;;;;;5021543;28;20116;-67
2023/08/19 02:19:57;;;;;;;18.98;17.08;;;;;;;;;;5019351;28;20041;-67
2023/08/19 02:22:25;;;;;;;20.13;17.63;;;;;;;;;;5019795;28;20510;-69
2023/08/19 02:24:50;;;;;;;18.80;16.48;;;;;;;;;;5016083;28;20041;-69
2023/08/19 02:27:18;;;;;;;19.85;17.65;;;;;;;;;;5018181;28;20117;-69
2023/08/19 02:29:43;;;;;;;18.55;16.52;;;;;;;;;;5021048;28;20405;-68
2023/08/19 02:32:09;;;;;;;18.50;16.10;;;;;;;;;;5021725;28;20034;-69
2023/08/19 02:34:34;;;;;;;18.17;15.98;;;;;;;;;;5016420;28;20238;-67
2023/08/19 02:36:59;;;;;;;18.52;16.65;;;;;;;;;;5006437;28;20069;-68
2023/08/19 02:39:24;;;;;;;17.63;15.80;;;;;;;;;;5020684;28;20139;-68
2023/08/19 02:41:50;;;;;;;18.40;16.08;;;;;;;;;;5018647;28;20098;-69
2023/08/19 02:44:15;;;;;;;17.88;16.08;;;;;;;;;;5016345;28;20061;-69
2023/08/19 02:46:40;;;;;;;18.98;16.23;;;;;;;;;;5016041;28;20114;-68
2023/08/19 02:49:06;;;;;;;18.52;16.60;;;;;;;;;;5048406;28;20033;-70
2023/08/19 02:51:31;;;;;;;18.08;15.73;;;;;;;;;;5017543;28;20497;-69
2023/08/19 02:53:56;;;;;;;17.70;15.73;;;;;;;;;;5022838;28;20739;-69
2023/08/19 02:56:30;;;;;;;18.00;15.60;;;;;;;;;;5014685;28;20056;-68
2023/08/19 02:58:56;;;;;;;17.95;16.02;;;;;;;;;;5017316;28;20099;-69
2023/08/19 03:01:21;;;;;;;19.42;16.17;;;;;;;;;;5018406;28;20554;-69
2023/08/19 03:03:46;;;;;;;19.67;16.30;;;;;;;;;;5017658;28;20491;-69
2023/08/19 03:06:11;;;;;;;18.35;16.45;;;;;;;;;;5014625;28;20039;-70
2023/08/19 03:08:37;;;;;;;19.73;16.88;;;;;;;;;;5020702;28;20545;-68
2023/08/19 03:11:05;;;;;;;19.45;16.38;;;;;;;;;;5022595;28;20104;-69
2023/08/19 03:13:30;;;;;;;20.00;17.35;;;;;;;;;;5015360;28;20034;-69
2023/08/19 03:15:59;;;;;;;20.15;16.48;;;;;;;;;;5016288;28;20062;-71
2023/08/19 03:18:25;;;;;;;19.33;16.20;;;;;;;;;;5006680;28;20034;-69
2023/08/19 03:21:00;;;;;;;20.02;15.82;;;;;;;;;;5014367;28;20051;-69
2023/08/19 03:23:26;;;;;;;18.23;15.77;;;;;;;;;;5048433;28;20033;-69
2023/08/19 03:25:51;;;;;;;18.20;16.25;;;;;;;;;;5017085;28;20040;-69
2023/08/19 03:28:17;;;;;;;16.95;15.23;;;;;;;;;;5030088;28;20041;-69
2023/08/19 03:30:42;;;;;;;17.90;16.00;;;;;;;;;;5016328;28;20045;-69
2023/08/19 03:33:08;;;;;;;21.67;16.38;;;;;;;;;;5014996;28;21092;-69
2023/08/19 03:35:34;;;;;;;18.50;15.88;;;;;;;;;;5019723;28;20075;-72
2023/08/19 03:38:00;;;;;;;18.23;15.50;;;;;;;;;;5022237;28;20098;-70
2023/08/19 03:40:26;;;;;;;19.95;15.40;;;;;;;;;;5014891;28;20473;-70
2023/08/19 03:42:56;;;;;;;20.45;15.77;;;;;;;;;;5017849;28;20525;-70
2023/08/19 03:45:21;;;;;;;19.98;16.13;;;;;;;;;;5046878;28;20034;-69
2023/08/19 03:47:46;;;;;;;17.83;15.63;;;;;;;;;;5017789;28;20051;-69
2023/08/19 03:50:14;;;;;;;21.50;15.65;;;;;;;;;;5016411;28;20103;-70
2023/08/19 03:52:39;;;;;;;22.35;16.52;;;;;;;;;;5017791;28;20565;-69
2023/08/19 03:55:07;;;;;;;16.38;14.68;;;;;;;;;;5015123;28;20053;-68
2023/08/19 03:57:32;;;;;;;23.27;16.90;;;;;;;;;;5017571;28;20494;-68
2023/08/19 03:59:57;;;;;;;20.88;15.52;;;;;;;;;;5014806;28;20184;-68
2023/08/19 04:02:25;;;;;;;18.55;14.75;;;;;;;;;;5015849;28;20029;-69
2023/08/19 04:05:01;;;;;;;17.25;15.02;;;;;;;;;;5021321;28;20044;-67
2023/08/19 04:07:27;;;;;;;16.75;14.95;;;;;;;;;;5015547;28;20132;-69
2023/08/19 04:09:53;;;;;;;17.95;15.10;;;;;;;;;;5015346;28;20092;-68
2023/08/19 04:12:18;;;;;;;16.98;15.23;;;;;;;;;;5016470;28;20386;-70
2023/08/19 04:14:46;;;;;;;18.05;14.82;;;;;;;;;;5015371;28;20064;-69
2023/08/19 04:17:11;;;;;;;17.25;14.45;;;;;;;;;;4998554;28;20410;-69
2023/08/19 04:19:37;;;;;;;18.60;14.90;;;;;;;;;;5014900;28;20025;-67
2023/08/19 04:22:03;;;;;;;18.13;15.20;;;;;;;;;;5014981;28;20084;-69
2023/08/19 04:24:33;;;;;;;22.65;14.60;;;;;;;;;;5013784;28;20521;-67
2023/08/19 04:27:02;;;;;;;17.20;14.35;;;;;;;;;;5013941;28;20045;-67
2023/08/19 04:29:28;;;;;;;18.05;14.80;;;;;;;;;;5011942;28;20045;-68
2023/08/19 04:31:53;;;;;;;17.98;14.23;;;;;;;;;;5010872;28;20033;-67
2023/08/19 04:34:19;;;;;;;17.60;14.63;;;;;;;;;;5014818;28;20236;-69
2023/08/19 04:36:44;;;;;;;18.98;14.45;;;;;;;;;;5013542;28;20520;-68
2023/08/19 04:39:09;;;;;;;18.95;14.60;;;;;;;;;;5016723;28;20664;-67
2023/08/19 04:41:34;;;;;;;22.00;14.90;;;;;;;;;;5013849;28;20048;-67
2023/08/19 04:44:00;;;;;;;18.02;13.88;;;;;;;;;;5013125;28;20075;-67
2023/08/19 04:46:25;;;;;;;18.55;13.93;;;;;;;;;;5014431;28;20086;-69
2023/08/19 04:48:51;;;;;;;18.23;13.70;;;;;;;;;;5014416;28;20126;-68
2023/08/19 04:51:19;;;;;;;18.48;13.88;;;;;;;;;;5011878;28;20502;-71
2023/08/19 04:53:44;;;;;;;17.20;13.63;;;;;;;;;;5014104;28;20114;-69
2023/08/19 04:56:10;;;;;;;15.75;13.20;;;;;;;;;;5012045;28;20034;-69
2023/08/19 04:58:35;;;;;;;17.45;13.32;;;;;;;;;;5013862;28;20056;-69
2023/08/19 05:01:00;;;;;;;16.58;12.52;;;;;;;;;;5015323;28;20586;-68
2023/08/19 05:03:28;;;;;;;16.48;13.43;;;;;;;;;;5012812;28;20033;-67
2023/08/19 05:05:53;;;;;;;17.02;12.85;;;;;;;;;;5010659;28;20033;-68
2023/08/19 05:08:21;;;;;;;18.52;14.32;;;;;;;;;;5014830;28;20432;-67
2023/08/19 05:10:46;;;;;;;17.20;13.00;;;;;;;;;;5016891;28;20059;-69
2023/08/19 05:13:11;;;;;;;16.30;13.27;;;;;;;;;;5013515;28;20292;-68
2023/08/19 05:15:38;;;;;;;19.17;13.90;;;;;;;;;;5013611;28;20078;-67
2023/08/19 05:18:04;;;;;;;18.50;14.30;;;;;;;;;;5011685;28;20037;-69
2023/08/19 05:20:29;;;;;;;19.45;12.98;;;;;;;;;;5011072;28;20048;-69
2023/08/19 05:22:54;;;;;;;16.55;12.63;;;;;;;;;;5012060;28;20037;-68
2023/08/19 05:25:20;;;;;;;16.92;13.35;;;;;;;;;;5002484;28;20094;-68
2023/08/19 05:27:45;;;;;;;19.23;12.57;;;;;;;;;;5014252;28;20033;-68
2023/08/19 05:30:11;;;;;;;19.88;13.65;;;;;;;;;;5013757;28;20039;-69
2023/08/19 05:32:36;;;;;;;19.60;12.88;;;;;;;;;;5013083;28;20095;-68
2023/08/19 05:35:04;;;;;;;19.05;12.93;;;;;;;;;;5013060;28;20140;-69
2023/08/19 05:37:29;;;;;;;18.20;12.43;;;;;;;;;;5013968;28;20064;-68
2023/08/19 05:39:54;;;;;;;15.80;12.52;;;;;;;;;;5012239;28;20041;-69
2023/08/19 05:42:20;;;;;;;19.88;12.98;;;;;;;;;;5014026;28;20046;-68
2023/08/19 05:44:45;;;;;;;15.82;12.38;;;;;;;;;;5018693;28;20070;-68
2023/08/19 05:47:11;;;;;;;14.90;11.82;;;;;;;;;;5033152;28;20448;-68
2023/08/19 05:49:38;;;;;;;15.70;12.05;;;;;;;;;;5016109;28;20043;-69
2023/08/19 05:52:04;;;;;;;15.68;11.20;;;;;;;;;;5014043;28;20770;-66
2023/08/19 05:54:29;;;;;;;13.30;10.50;;;;;;;;;;5016960;28;20033;-69
2023/08/19 05:56:54;;;;;;;16.35;11.48;;;;;;;;;;5004991;28;22008;-68
2023/08/19 05:59:19;;;;;;;15.25;11.45;;;;;;;;;;5035716;28;20037;-68
2023/08/19 06:01:47;;;;;;;14.15;10.50;;;;;;;;;;5015117;28;20045;-69
2023/08/19 06:04:19;;;;;;;15.90;10.88;;;;;;;;;;5017406;28;20300;-68
2023/08/19 06:06:46;;;;;;;;;;;;;;;;;;5023287;28;20117;-69
2023/08/19 06:09:11;;;;;;;14.47;10.90;;;;;;;;;;5016333;28;20179;-68
2023/08/19 06:11:45;;;;;;;18.83;12.18;;;;;;;;;;5018172;28;20756;-68
2023/08/19 06:14:11;;;;;;;20.85;13.45;;;;;;;;;;5017324;28;20069;-68
2023/08/19 06:16:36;;;;;;;43.20;21.83;;;;;;;;;;5017300;28;20041;-68
2023/08/19 06:19:01;;;;;;;57.55;26.17;;;;;;;;;;5014344;28;20048;-69
2023/08/19 06:21:26;;;;;;;49.88;24.95;;;;;;;;;;5019981;28;20481;-68
2023/08/19 06:23:52;;;;;;;48.75;23.70;;;;;;;;;;5016957;28;20222;-68
2023/08/19 06:26:17;;;;;;;31.33;18.63;;;;;;;;;;5018686;28;20033;-69
2023/08/19 06:28:42;;;;;;;21.63;15.30;;;;;;;;;;5016574;28;20135;-67
2023/08/19 06:31:08;;;;;;;33.25;19.40;;;;;;;;;;5016361;28;20043;-68
2023/08/19 06:33:35;;;;;;;47.92;23.58;;;;;;;;;;5019838;28;20785;-69
2023/08/19 06:36:04;;;;;;;50.30;25.10;;;;;;;;;;5017815;28;20453;-68
2023/08/19 06:38:30;;;;;;;32.53;18.65;;;;;;;;;;5022904;28;20037;-69
2023/08/19 06:40:58;;;;;;;38.47;20.65;;;;;;;;;;5017543;28;21944;-68
2023/08/19 06:43:27;;;;;;;55.75;26.67;;;;;;;;;;5006305;28;20044;-67
2023/08/19 06:45:55;;;;;;;44.35;26.02;;;;;;;;;;5016824;28;20034;-68
2023/08/19 06:48:21;;;;;;;34.15;19.67;;;;;;;;;;5021985;28;21058;-68
2023/08/19 06:50:52;;;;;;;24.20;16.23;;;;;;;;;;5018690;28;20112;-68
2023/08/19 06:53:18;;;;;;;24.48;15.93;;;;;;;;;;5021024;28;20119;-68
2023/08/19 06:55:47;;;;;;;23.73;17.70;;;;;;;;;;5017858;28;20525;-68
2023/08/19 06:58:22;;;;;;;27.13;17.63;;;;;;;;;;5018836;28;20775;-68
2023/08/19 07:00:49;;;;;;;24.25;15.65;;;;;;;;;;5015381;28;20045;-69
2023/08/19 07:03:16;;;;;;;25.23;16.33;;;;;;;;;;5004631;28;20037;-67
2023/08/19 07:05:45;;;;;;;17.95;12.82;;;;;;;;;;5017116;28;20033;-68
2023/08/19 07:08:13;;;;;;;18.38;13.63;;;;;;;;;;5021841;28;20037;-68
2023/08/19 07:10:39;;;;;;;19.83;13.85;;;;;;;;;;5019900;28;20128;-67
2023/08/19 07:13:05;;;;;;;23.17;14.70;;;;;;;;;;5000928;28;20033;-68
2023/08/19 07:15:30;;;;;;;20.85;14.38;;;;;;;;;;4998005;28;20076;-66
2023/08/19 07:17:58;;;;;;;14.88;11.93;;;;;;;;;;4996844;28;20265;-68
2023/08/19 07:20:23;;;;;;;15.43;12.50;;;;;;;;;;4999006;28;20037;-68
2023/08/19 07:22:51;;;;;;;14.80;11.82;;;;;;;;;;4998700;28;20034;-62
2023/08/19 07:25:21;;;;;;;17.55;12.60;;;;;;;;;;4999459;28;20080;-64
2023/08/19 07:27:47;;;;;;;17.40;12.20;;;;;;;;;;5002957;28;20026;-63
2023/08/19 07:30:12;;;;;;;15.05;11.75;;;;;;;;;;5003616;28;20037;-61
2023/08/19 07:32:38;;;;;;;17.20;12.73;;;;;;;;;;4998372;28;20033;-64
2023/08/19 07:35:04;;;;;;;13.60;12.15;;;;;;;;;;5001296;28;20037;-63
2023/08/19 07:37:30;;;;;;;15.23;12.38;;;;;;;;;;5003095;28;20091;-63
2023/08/19 07:39:56;;;;;;;19.17;13.55;;;;;;;;;;5000570;28;20033;-62
2023/08/19 07:42:24;;;;;;;17.30;13.38;;;;;;;;;;4998439;28;20103;-63
2023/08/19 07:44:50;;;;;;;19.00;14.00;;;;;;;;;;4995898;28;20483;-62
2023/08/19 07:47:17;;;;;;;20.35;14.07;;;;;;;;;;4993645;28;20083;-63
2023/08/19 07:49:42;;;;;;;22.48;14.38;;;;;;;;;;4997679;28;20063;-64
2023/08/19 07:52:08;;;;;;;20.27;14.57;;;;;;;;;;4996094;28;21084;-63
2023/08/19 07:54:33;;;;;;;20.17;15.50;;;;;;;;;;4992528;28;20045;-64
2023/08/19 07:56:59;;;;;;;16.30;14.55;;;;;;;;;;4994981;28;20041;-66
2023/08/19 07:59:24;;;;;;;19.50;15.80;;;;;;;;;;4998616;28;20033;-64
2023/08/19 08:01:52;;;;;;;21.25;15.88;;;;;;;;;;4997854;28;20045;-62
2023/08/19 08:04:18;;;;;;;19.20;15.60;;;;;;;;;;4992827;28;20088;-63
2023/08/19 08:06:45;;;;;;;22.35;16.17;;;;;;;;;;4992501;28;20669;-63
2023/08/19 08:09:10;;;;;;;23.42;17.80;;;;;;;;;;4994673;28;20037;-63
2023/08/19 08:11:36;;;;;;;22.77;18.25;;;;;;;;;;4991368;28;20049;-64
2023/08/19 08:14:01;;;;;;;23.67;17.95;;;;;;;;;;5000212;28;20105;-63
2023/08/19 08:16:27;;;;;;;26.20;18.55;;;;;;;;;;4992282;28;20118;-62
2023/08/19 08:18:52;;;;;;;27.77;19.25;;;;;;;;;;4994964;28;20025;-63
2023/08/19 08:21:19;;;;;;;24.75;17.77;;;;;;;;;;4994470;28;20049;-64
2023/08/19 08:23:44;;;;;;;21.77;17.30;;;;;;;;;;4994574;28;20034;-63
2023/08/19 08:26:09;;;;;;;27.48;19.30;;;;;;;;;;4996764;28;20034;-63
2023/08/19 08:28:36;;;;;;;23.50;19.00;;;;;;;;;;4996622;28;20400;-63
2023/08/19 08:31:04;;;;;;;27.40;20.48;;;;;;;;;;4997437;28;20123;-63
2023/08/19 08:33:29;;;;;;;26.88;19.90;;;;;;;;;;4994524;28;20033;-63
2023/08/19 08:35:54;;;;;;;33.58;20.92;;;;;;;;;;4991552;28;21142;-63
2023/08/19 08:38:20;;;;;;;27.52;20.17;;;;;;;;;;5008822;28;20042;-63
2023/08/19 08:40:45;;;;;;;30.63;21.75;;;;;;;;;;4994690;28;20049;-63
2023/08/19 08:43:11;;;;;;;27.55;20.45;;;;;;;;;;4992805;28;20036;-63
2023/08/19 08:45:37;;;;;;;34.92;20.67;;;;;;;;;;4989163;28;20045;-65
2023/08/19 08:48:04;;;;;;;27.58;18.52;;;;;;;;;;4989957;28;20037;-63
2023/08/19 08:50:29;;;;;;;27.17;19.08;;;;;;;;;;4998326;28;20735;-62
2023/08/19 08:52:57;;;;;;;26.42;17.40;;;;;;;;;;5010915;28;20103;-61
2023/08/19 08:55:23;;;;;;;21.27;16.73;;;;;;;;;;5009272;28;20723;-64
2023/08/19 08:57:48;;;;;;;20.00;14.90;;;;;;;;;;5014819;28;20149;-64
2023/08/19 09:00:14;;;;;;;16.70;12.75;;;;;;;;;;5011478;28;20029;-62
2023/08/19 09:02:40;;;;;;;15.43;11.43;;;;;;;;;;5031461;28;20033;-63
2023/08/19 09:05:06;;;;;;;15.95;10.07;;;;;;;;;;5010340;28;20029;-63
2023/08/19 09:07:34;;;;;;;16.38;8.98;;;;;;;;;;5010282;28;20522;-64
2023/08/19 09:10:01;;;;;;;14.88;8.90;;;;;;;;;;5011251;28;20799;-63
2023/08/19 09:12:29;;;;;;;15.88;10.00;;;;;;;;;;5030294;28;20041;-64
2023/08/19 09:14:57;;;;;;;18.70;10.52;;;;;;;;;;5013878;28;20041;-62
2023/08/19 09:17:23;;;;;;;18.25;11.40;;;;;;;;;;5015100;28;20065;-64
2023/08/19 09:19:48;;;;;;;17.80;11.23;;;;;;;;;;5011862;28;20041;-61
2023/08/19 09:22:18;;;;;;;17.55;10.75;;;;;;;;;;5018498;28;20180;-64
2023/08/19 09:24:46;;;;;;;14.48;10.07;;;;;;;;;;5000182;28;20512;-69
2023/08/19 09:27:12;;;;;;;15.20;10.18;;;;;;;;;;5013297;28;22442;-69
2023/08/19 09:29:46;;;;;;;16.83;10.45;;;;;;;;;;5013460;28;20569;-69
2023/08/19 09:32:12;;;;;;;17.90;11.27;;;;;;;;;;5010526;28;20036;-69
2023/08/19 09:34:37;;;;;;;15.40;9.80;;;;;;;;;;5008936;28;20048;-70
2023/08/19 09:37:03;;;;;;;15.10;9.68;;;;;;;;;;5008668;28;20048;-69
2023/08/19 09:39:34;;;;;;;17.45;8.70;;;;;;;;;;5011889;28;20033;-68
2023/08/19 09:41:59;;;;;;;14.02;7.97;;;;;;;;;;5008541;28;20548;-70
2023/08/19 09:44:29;;;;;;;11.50;7.30;;;;;;;;;;5012580;28;20033;-69
2023/08/19 09:46:59;;;;;;;13.38;7.38;;;;;;;;;;5009461;28;20030;-69
2023/08/19 09:49:24;;;;;;;12.38;6.90;;;;;;;;;;5011566;28;20383;-68
2023/08/19 09:51:56;;;;;;;12.77;6.72;;;;;;;;;;4985661;28;20051;-70
2023/08/19 09:54:22;;;;;;;12.88;6.80;;;;;;;;;;5011644;28;20521;-72
2023/08/19 09:56:59;;;;;;;13.65;6.68;;;;;;;;;;4999654;28;20037;-69
2023/08/19 09:59:27;;;;;;;14.90;7.05;;;;;;;;;;5015604;28;20038;-69
2023/08/19 10:01:53;;;;;;;12.75;6.70;;;;;;;;;;5012050;28;20516;-70
2023/08/19 10:04:18;;;;;;;12.85;7.28;;;;;;;;;;5012463;28;20044;-69
2023/08/19 10:06:45;;;;;;;13.95;7.55;;;;;;;;;;5009455;28;20056;-70
2023/08/19 10:09:11;;;;;;;13.80;7.85;;;;;;;;;;5011780;28;20038;-70
2023/08/19 10:11:42;;;;;;;15.18;7.70;;;;;;;;;;5027205;28;20123;-68
2023/08/19 10:14:11;;;;;;;12.55;7.88;;;;;;;;;;5013038;28;20532;-69
2023/08/19 10:16:38;;;;;;;13.73;7.45;;;;;;;;;;5011237;28;20090;-67
2023/08/19 10:19:06;;;;;;;12.60;7.20;;;;;;;;;;5003698;28;20067;-68
2023/08/19 10:21:32;;;;;;;12.13;6.90;;;;;;;;;;5017339;28;20319;-70
2023/08/19 10:23:58;;;;;;;13.75;7.30;;;;;;;;;;5006069;28;20988;-71
2023/08/19 10:26:23;;;;;;;14.23;6.65;;;;;;;;;;4990099;28;20569;-69
2023/08/19 10:29:05;;;;;;;12.80;6.25;;;;;;;;;;4992060;28;20064;-73
2023/08/19 10:31:31;;;;;;;12.82;6.53;;;;;;;;;;4997153;28;20411;-70
2023/08/19 10:33:57;;;;;;;10.90;6.20;;;;;;;;;;4994588;28;20541;-69
2023/08/19 10:36:30;;;;;;;11.20;6.63;;;;;;;;;;5016480;28;20091;-73
2023/08/19 10:38:57;;;;;;;10.25;6.20;;;;;;;;;;4994745;28;20079;-74
2023/08/19 10:41:30;;;;;;;16.95;6.50;;;;;;;;;;4995175;28;20049;-71
2023/08/19 10:44:13;;;;;;;15.30;6.55;;;;;;;;;;4997179;28;20189;-73
2023/08/19 10:46:39;;;;;;;11.63;6.63;;;;;;;;;;4997603;28;20040;-72
2023/08/19 10:49:06;;;;;;;13.23;7.47;;;;;;;;;;4998151;28;20470;-72
2023/08/19 10:51:51;;;;;;;13.70;7.93;;;;;;;;;;5014754;28;20033;-72
2023/08/19 10:54:26;;;;;;;17.33;9.82;;;;;;;;;;5017194;28;20029;-68
2023/08/19 10:57:10;;;;;;;16.67;9.40;;;;;;;;;;5013867;28;20401;-73
2023/08/19 10:59:36;;;;;;;15.40;8.70;;;;;;;;;;5015757;28;20033;-70
2023/08/19 11:02:02;;;;;;;14.52;8.10;;;;;;;;;;5011184;28;20519;-68
2023/08/19 11:04:30;;;;;;;19.42;8.75;;;;;;;;;;5014224;28;20055;-72
2023/08/19 11:06:56;;;;;;;14.93;8.55;;;;;;;;;;5015571;28;20051;-71
2023/08/19 11:09:28;;;;;;;16.00;9.32;;;;;;;;;;5014201;28;20045;-71
2023/08/19 11:11:57;;;;;;;16.80;8.98;;;;;;;;;;5011293;28;20040;-71
2023/08/19 11:14:22;;;;;;;15.50;9.13;;;;;;;;;;5014567;28;20058;-71
2023/08/19 11:16:51;;;;;;;16.58;9.18;;;;;;;;;;5013952;28;20678;-70
2023/08/19 11:19:17;;;;;;;15.43;9.07;;;;;;;;;;5016726;28;20033;-71
2023/08/19 11:21:45;;;;;;;17.60;9.35;;;;;;;;;;5011151;28;20159;-72
2023/08/19 11:24:11;;;;;;;19.85;8.73;;;;;;;;;;5009825;28;20051;-71
2023/08/19 11:26:39;;;;;;;18.63;9.70;;;;;;;;;;5044847;28;20040;-70
2023/08/19 11:29:09;;;;;;;18.38;10.15;;;;;;;;;;5014494;28;20268;-72
2023/08/19 11:31:35;;;;;;;18.23;9.80;;;;;;;;;;5016348;28;20037;-68
2023/08/19 11:34:04;;;;;;;16.02;9.27;;;;;;;;;;5001177;28;20222;-72
2023/08/19 11:36:32;;;;;;;20.23;10.10;;;;;;;;;;5014616;28;20186;-70
2023/08/19 11:38:58;;;;;;;19.23;9.65;;;;;;;;;;5013868;28;20036;-72
2023/08/19 11:41:23;;;;;;;17.38;9.68;;;;;;;;;;5013837;28;20049;-72
2023/08/19 11:43:55;;;;;;;16.65;8.98;;;;;;;;;;5012926;28;20041;-72
2023/08/19 11:46:20;;;;;;;19.02;9.02;;;;;;;;;;5019597;28;20160;-69
2023/08/19 11:48:46;;;;;;;15.15;8.88;;;;;;;;;;5012441;28;20044;-68
2023/08/19 11:51:11;;;;;;;18.23;8.63;;;;;;;;;;5019400;28;20111;-71
2023/08/19 11:53:37;;;;;;;19.52;8.45;;;;;;;;;;5013009;28;20041;-69
2023/08/19 11:56:03;;;;;;;21.85;9.18;;;;;;;;;;5015329;28;20506;-69
2023/08/19 11:58:40;;;;;;;18.63;8.68;;;;;;;;;;5019803;28;20037;-70
2023/08/19 12:01:06;;;;;;;20.75;8.80;;;;;;;;;;5047127;28;20053;-69
2023/08/19 12:03:31;;;;;;;20.77;9.07;;;;;;;;;;5046462;28;20032;-69
2023/08/19 12:05:57;;;;;;;22.40;9.77;;;;;;;;;;5016789;28;20033;-69
2023/08/19 12:08:32;;;;;;;22.42;9.77;;;;;;;;;;5014782;27;20110;-69
2023/08/19 12:10:58;;;;;;;19.83;7.55;;;;;;;;;;5016912;28;20716;-69
2023/08/19 12:13:23;;;;;;;16.77;6.78;;;;;;;;;;5015811;28;20094;-68
2023/08/19 12:15:49;;;;;;;20.90;7.10;;;;;;;;;;5047154;28;21052;-69
2023/08/19 12:18:15;;;;;;;19.27;6.40;;;;;;;;;;5004111;28;20037;-70
2023/08/19 12:20:44;;;;;;;28.88;6.53;;;;;;;;;;5046763;28;20051;-68
2023/08/19 12:23:09;;;;;;;26.05;5.70;;;;;;;;;;5015650;28;20100;-70
2023/08/19 12:25:55;;;;;;;21.55;5.60;;;;;;;;;;5015374;28;20103;-66
2023/08/19 12:28:20;;;;;;;20.70;5.90;;;;;;;;;;5016602;28;20037;-69
2023/08/19 12:30:46;;;;;;;18.25;5.43;;;;;;;;;;5015178;28;20102;-69
2023/08/19 12:33:14;;;;;;;24.02;5.72;;;;;;;;;;5000411;28;20071;-70
2023/08/19 12:35:41;;;;;;;22.75;5.95;;;;;;;;;;4994611;28;20051;-72
2023/08/19 12:38:08;;;;;;;26.10;6.00;;;;;;;;;;4996581;28;20050;-69
2023/08/19 12:40:34;;;;;;;17.88;5.38;;;;;;;;;;4994524;28;20080;-70
2023/08/19 12:42:59;;;;;;;20.65;4.97;;;;;;;;;;4996451;28;20037;-69
2023/08/19 12:45:25;;;;;;;17.95;4.75;;;;;;;;;;4996469;28;20954;-66
2023/08/19 12:47:53;;;;;;;22.40;4.70;;;;;;;;;;5000092;28;20045;-71
2023/08/19 12:50:19;;;;;;;24.40;5.28;;;;;;;;;;4993823;28;20030;-69
2023/08/19 12:52:44;;;;;;;19.55;5.00;;;;;;;;;;4993447;28;20316;-69
2023/08/19 12:55:10;;;;;;;21.73;4.50;;;;;;;;;;4992789;28;20508;-69
2023/08/19 12:57:42;;;;;;;24.10;5.28;;;;;;;;;;4990919;28;20057;-69
2023/08/19 13:00:08;;;;;;;23.70;5.13;;;;;;;;;;5042028;28;20029;-69
2023/08/19 13:02:35;;;;;;;19.58;4.25;;;;;;;;;;5011891;28;20136;-67
2023/08/19 13:05:01;;;;;;;20.05;4.78;;;;;;;;;;5013554;28;20048;-69
2023/08/19 13:07:26;;;;;;;19.95;4.10;;;;;;;;;;5016789;28;20033;-69
2023/08/19 13:09:52;;;;;;;21.77;4.65;;;;;;;;;;5011014;28;20568;-68
2023/08/19 13:12:17;;;;;;;19.33;3.92;;;;;;;;;;5011855;28;20044;-68
2023/08/19 13:14:43;;;;;;;21.42;3.95;;;;;;;;;;5011464;28;20154;-68
2023/08/19 13:17:10;;;;;;;18.42;3.78;;;;;;;;;;5011332;28;20558;-70
2023/08/19 13:19:35;;;;;;;21.08;4.00;;;;;;;;;;5008126;28;20042;-68
2023/08/19 13:22:01;;;;;;;19.27;3.75;;;;;;;;;;5013662;28;20083;-68
2023/08/19 13:24:26;;;;;;;21.77;4.18;;;;;;;;;;5012323;28;20040;-70
2023/08/19 13:26:51;;;;;;;20.88;4.22;;;;;;;;;;5013351;28;20807;-72
2023/08/19 13:29:19;;;;;;;22.95;3.78;;;;;;;;;;5031639;28;20475;-70
2023/08/19 13:31:44;;;;;;;23.63;3.95;;;;;;;;;;5013099;28;20071;-69
2023/08/19 13:34:12;;;;;;;21.02;4.10;;;;;;;;;;5016285;28;20113;-67
2023/08/19 13:36:40;;;;;;;18.67;4.03;;;;;;;;;;5042686;28;20071;-68
2023/08/19 13:39:05;;;;;;;22.15;3.92;;;;;;;;;;5012841;28;20721;-68
2023/08/19 13:41:31;;;;;;;21.50;3.97;;;;;;;;;;5000180;28;20556;-67
2023/08/19 13:43:59;;;;;;;23.17;3.58;;;;;;;;;;5013238;28;20037;-67
2023/08/19 13:46:25;;;;;;;22.38;4.00;;;;;;;;;;5013899;28;20567;-67
2023/08/19 13:48:50;;;;;;;22.10;3.97;;;;;;;;;;5009340;28;20033;-68
2023/08/19 13:51:18;;;;;;;21.45;4.50;;;;;;;;;;5015575;28;20044;-68
2023/08/19 13:53:46;;;;;;;20.98;4.03;;;;;;;;;;5012856;28;20048;-68
2023/08/19 13:56:12;;;;;;;19.27;3.90;;;;;;;;;;4999132;28;20033;-67
2023/08/19 13:58:37;;;;;;;20.17;3.60;;;;;;;;;;5011808;28;20073;-67
2023/08/19 14:01:04;;;;;;;17.45;3.78;;;;;;;;;;4996892;28;20037;-68
2023/08/19 14:03:30;;;;;;;17.42;3.47;;;;;;;;;;5014820;28;20029;-67
2023/08/19 14:05:57;;;;;;;16.67;3.40;;;;;;;;;;5015124;28;20115;-68
2023/08/19 14:08:22;;;;;;;19.27;3.30;;;;;;;;;;5016792;28;20041;-64
2023/08/19 14:10:52;;;;;;;16.15;3.97;;;;;;;;;;5016613;28;20550;-67
2023/08/19 14:13:21;;;;;;;22.35;4.05;;;;;;;;;;5047586;28;20122;-70
2023/08/19 14:15:49;;;;;;;15.40;3.65;;;;;;;;;;5015569;28;20064;-67
2023/08/19 14:18:17;;;;;;;18.58;3.28;;;;;;;;;;5042530;28;20162;-67